createdAt,value
2018-10-19T00:02:24.547Z,8.50
2018-10-19T00:04:54.270Z,9.83
2018-10-19T00:07:24.032Z,11.07
2018-10-19T00:09:53.781Z,10.60
2018-10-19T00:12:23.519Z,8.50
2018-10-19T00:14:53.284Z,10.27
2018-10-19T00:17:23.111Z,11.70
2018-10-19T00:19:53.187Z,12.57
2018-10-19T00:22:23.194Z,16.33
2018-10-19T00:24:52.976Z,11.17
2018-10-19T00:27:22.691Z,14.53
2018-10-19T00:29:52.449Z,11.27
2018-10-19T00:32:22.163Z,16.20
2018-10-19T00:34:51.915Z,12.13
2018-10-19T00:37:21.839Z,12.37
2018-10-19T00:39:51.552Z,11.17
2018-10-19T00:42:21.186Z,17.83
2018-10-19T00:44:50.805Z,12.37
2018-10-19T00:47:20.763Z,11.37
2018-10-19T00:49:50.562Z,11.83
2018-10-19T00:52:20.269Z,12.40
2018-10-19T00:54:49.931Z,8.97
2018-10-19T00:57:19.592Z,11.30
2018-10-19T00:59:49.243Z,9.13
2018-10-19T01:02:18.888Z,9.77
2018-10-19T01:04:48.930Z,9.40
2018-10-19T01:07:18.610Z,14.13
2018-10-19T01:09:48.274Z,13.67
2018-10-19T01:12:18.069Z,15.60
2018-10-19T01:14:47.827Z,12.03
2018-10-19T01:17:17.504Z,18.13
2018-10-19T01:19:47.355Z,14.57
2018-10-19T01:22:17.316Z,12.93
2018-10-19T01:24:47.055Z,13.03
2018-10-19T01:27:16.775Z,16.47
2018-10-19T01:29:46.353Z,12.37
2018-10-19T01:32:15.991Z,13.47
2018-10-19T01:34:45.628Z,9.97
2018-10-19T01:37:15.376Z,13.43
2018-10-19T01:39:44.916Z,10.07
2018-10-19T01:42:14.296Z,11.50
2018-10-19T01:44:43.767Z,10.90
2018-10-19T01:47:13.116Z,15.73
2018-10-19T01:49:43.039Z,13.00
2018-10-19T01:52:12.392Z,11.60
2018-10-19T01:54:42.906Z,13.50
2018-10-19T01:57:12.348Z,11.70
2018-10-19T01:59:42.180Z,15.27
2018-10-19T02:02:11.514Z,8.20
2018-10-19T02:04:41.246Z,11.27
2018-10-19T02:07:10.578Z,14.10
2018-10-19T02:09:41.564Z,11.07
2018-10-19T02:12:11.217Z,9.47
2018-10-19T02:14:40.480Z,15.97
2018-10-19T02:17:09.948Z,8.33
2018-10-19T02:19:39.239Z,15.57
2018-10-19T02:22:08.916Z,8.57
2018-10-19T02:24:38.946Z,9.43
2018-10-19T02:27:08.735Z,12.40
2018-10-19T02:29:38.160Z,12.53
2018-10-19T02:32:07.511Z,9.73
2018-10-19T02:34:36.933Z,11.03
2018-10-19T02:37:06.595Z,15.80
2018-10-19T02:39:35.946Z,8.33
2018-10-19T02:42:05.402Z,13.07
2018-10-19T02:44:34.771Z,14.60
2018-10-19T02:47:04.563Z,9.00
2018-10-19T02:49:33.831Z,13.50
2018-10-19T02:52:03.189Z,11.83
2018-10-19T02:54:32.694Z,13.50
2018-10-19T02:57:02.200Z,13.77
2018-10-19T02:59:31.480Z,10.00
2018-10-19T03:02:02.094Z,10.83
2018-10-19T03:04:31.429Z,14.13
2018-10-19T03:07:00.763Z,15.87
2018-10-19T03:09:30.077Z,14.73
2018-10-19T03:11:59.376Z,9.00
2018-10-19T03:14:28.777Z,10.47
2018-10-19T03:16:58.400Z,10.93
2018-10-19T03:19:28.110Z,15.23
2018-10-19T03:21:57.773Z,13.93
2018-10-19T03:24:27.469Z,10.13
2018-10-19T03:26:57.208Z,7.97
2018-10-19T03:29:27.618Z,10.60
2018-10-19T03:31:57.264Z,10.07
2018-10-19T03:34:29.807Z,12.70
2018-10-19T03:36:59.573Z,10.90
2018-10-19T03:39:29.362Z,9.83
2018-10-19T03:41:59.084Z,9.20
2018-10-19T03:44:28.966Z,13.97
2018-10-19T03:46:59.312Z,11.30
2018-10-19T03:49:29.074Z,10.63
2018-10-19T03:51:58.892Z,10.27
2018-10-19T03:54:28.782Z,10.33
2018-10-19T03:56:58.475Z,9.53
2018-10-19T03:59:28.222Z,9.17
2018-10-19T04:01:58.570Z,10.60
2018-10-19T04:04:28.778Z,10.03
2018-10-19T04:06:58.512Z,11.13
2018-10-19T04:09:28.292Z,10.57
2018-10-19T04:11:58.043Z,10.73
2018-10-19T04:14:27.995Z,7.90
2018-10-19T04:16:58.105Z,8.87
2018-10-19T04:19:28.006Z,13.63
2018-10-19T04:21:57.617Z,8.93
2018-10-19T04:24:27.280Z,14.03
2018-10-19T04:26:57.015Z,10.83
2018-10-19T04:29:27.438Z,8.57
2018-10-19T04:31:59.966Z,10.20
2018-10-19T04:34:31.560Z,12.57
2018-10-19T04:37:04.557Z,10.00
2018-10-19T04:39:34.278Z,13.27
2018-10-19T04:42:04.482Z,13.03
2018-10-19T04:44:33.717Z,7.90
2018-10-19T04:47:03.530Z,14.70
2018-10-19T04:49:32.975Z,10.47
2018-10-19T04:52:02.655Z,11.50
2018-10-19T04:54:32.149Z,10.60
2018-10-19T04:57:12.519Z,13.40
2018-10-19T04:59:42.242Z,14.23
2018-10-19T05:02:11.765Z,13.53
2018-10-19T05:04:41.186Z,6.10
2018-10-19T05:07:10.754Z,12.03
2018-10-19T05:09:41.354Z,13.30
2018-10-19T05:12:10.793Z,14.27
2018-10-19T05:14:40.237Z,19.77
2018-10-19T05:17:09.944Z,14.77
2018-10-19T05:19:39.708Z,11.17
2018-10-19T05:22:09.109Z,14.17
2018-10-19T05:24:39.811Z,10.40
2018-10-19T05:27:09.183Z,13.17
2018-10-19T05:29:38.813Z,11.50
2018-10-19T05:32:08.470Z,11.27
2018-10-19T05:34:39.351Z,13.47
2018-10-19T05:37:09.107Z,10.17
2018-10-19T05:39:39.505Z,13.97
2018-10-19T05:42:08.934Z,15.40
2018-10-19T05:44:38.386Z,11.33
2018-10-19T05:47:07.883Z,11.83
2018-10-19T05:49:37.337Z,13.17
2018-10-19T05:52:06.808Z,13.63
2018-10-19T05:54:36.174Z,14.53
2018-10-19T05:57:05.982Z,16.40
2018-10-19T05:59:35.635Z,12.07
2018-10-19T06:02:05.770Z,9.40
2018-10-19T06:04:35.295Z,16.27
2018-10-19T06:07:04.777Z,17.93
2018-10-19T06:09:34.160Z,14.40
2018-10-19T06:12:03.514Z,6.77
2018-10-19T06:14:32.833Z,11.97
2018-10-19T06:17:03.137Z,12.63
2018-10-19T06:19:32.541Z,14.73
2018-10-19T06:22:02.397Z,13.67
2018-10-19T06:24:31.855Z,15.07
2018-10-19T06:27:01.263Z,14.50
2018-10-19T06:29:30.641Z,9.43
2018-10-19T06:32:00.923Z,7.47
2018-10-19T06:34:30.252Z,8.97
2018-10-19T06:36:59.573Z,11.90
2018-10-19T06:39:28.917Z,12.87
2018-10-19T06:41:58.306Z,12.13
2018-10-19T06:44:27.707Z,16.83
2018-10-19T06:46:57.058Z,14.20
2018-10-19T06:49:26.328Z,10.70
2018-10-19T06:51:55.721Z,15.87
2018-10-19T06:54:25.088Z,15.13
2018-10-19T06:56:54.457Z,10.00
2018-10-19T06:59:25.295Z,10.63
2018-10-19T07:01:54.861Z,12.40
2018-10-19T07:04:24.269Z,9.10
2018-10-19T07:06:53.737Z,13.57
2018-10-19T07:09:23.098Z,8.90
2018-10-19T07:11:53.011Z,10.93
2018-10-19T07:14:22.338Z,11.47
2018-10-19T07:16:52.247Z,14.37
2018-10-19T07:19:21.700Z,9.27
2018-10-19T07:21:51.942Z,11.37
2018-10-19T07:24:21.221Z,11.53
2018-10-19T07:26:50.488Z,10.20
2018-10-19T07:29:19.949Z,13.77
2018-10-19T07:31:49.204Z,9.20
2018-10-19T07:34:18.636Z,11.97
2018-10-19T07:36:47.952Z,14.60
2018-10-19T07:39:17.238Z,15.83
2018-10-19T07:41:46.577Z,10.80
2018-10-19T07:44:15.924Z,9.17
2018-10-19T07:46:45.306Z,11.70
2018-10-19T07:49:14.639Z,9.90
2018-10-19T07:51:44.609Z,11.40
2018-10-19T07:54:13.919Z,10.83
2018-10-19T07:56:43.262Z,9.17
2018-10-19T07:59:12.627Z,13.80
2018-10-19T08:04:42.225Z,12.23
2018-10-19T08:07:11.518Z,12.70
2018-10-19T08:09:41.733Z,11.77
2018-10-19T08:12:11.045Z,12.13
2018-10-19T08:14:40.350Z,11.87
2018-10-19T08:17:09.722Z,10.37
2018-10-19T08:19:39.028Z,10.50
2018-10-19T08:22:08.419Z,8.27
2018-10-19T08:24:38.298Z,13.10
2018-10-19T08:27:07.713Z,12.03
2018-10-19T08:29:37.037Z,9.80
2018-10-19T08:32:06.949Z,15.90
2018-10-19T08:34:36.323Z,12.87
2018-10-19T08:37:06.057Z,11.53
2018-10-19T08:39:35.438Z,10.53
2018-10-19T08:42:05.005Z,16.37
2018-10-19T08:44:34.376Z,17.90
2018-10-19T08:47:04.162Z,10.33
2018-10-19T08:49:33.540Z,19.67
2018-10-19T08:52:02.859Z,11.53
2018-10-19T08:54:32.265Z,14.27
2018-10-19T08:57:01.801Z,15.70
2018-10-19T08:59:31.168Z,12.43
2018-10-19T09:02:01.460Z,11.10
2018-10-19T09:04:30.736Z,13.97
2018-10-19T09:07:00.157Z,12.43
2018-10-19T09:09:29.441Z,14.80
2018-10-19T09:11:59.365Z,11.33
2018-10-19T09:14:39.760Z,11.90
2018-10-19T09:17:09.086Z,14.93
2018-10-19T09:19:38.530Z,13.23
2018-10-19T09:22:07.961Z,18.63
2018-10-19T09:24:37.961Z,12.33
2018-10-19T09:27:07.390Z,10.93
2018-10-19T09:29:36.811Z,14.17
2018-10-19T09:32:06.326Z,11.53
2018-10-19T09:34:36.118Z,17.03
2018-10-19T09:37:06.514Z,13.07
2018-10-19T09:39:35.865Z,19.83
2018-10-19T09:42:05.444Z,11.40
2018-10-19T09:44:34.890Z,9.57
2018-10-19T09:47:05.099Z,13.50
2018-10-19T09:49:34.477Z,13.10
2018-10-19T09:52:03.841Z,13.67
2018-10-19T09:54:33.179Z,13.53
2018-10-19T09:57:02.763Z,12.67
2018-10-19T09:59:32.166Z,14.37
2018-10-19T10:02:03.464Z,12.70
2018-10-19T10:04:32.828Z,13.73
2018-10-19T10:07:02.972Z,14.03
2018-10-19T10:09:32.340Z,16.63
2018-10-19T10:12:02.480Z,14.27
2018-10-19T10:14:32.059Z,12.17
2018-10-19T10:17:02.931Z,15.00
2018-10-19T10:19:32.256Z,10.13
2018-10-19T10:22:02.291Z,11.60
2018-10-19T10:24:31.653Z,12.80
2018-10-19T10:27:01.476Z,8.83
2018-10-19T10:29:30.835Z,11.50
2018-10-19T10:32:01.240Z,15.20
2018-10-19T10:34:30.961Z,15.73
2018-10-19T10:37:00.918Z,11.83
2018-10-19T10:39:30.257Z,16.83
2018-10-19T10:42:00.146Z,14.03
2018-10-19T10:44:29.862Z,16.10
2018-10-19T10:47:00.117Z,14.37
2018-10-19T10:49:29.819Z,14.73
2018-10-19T10:51:59.231Z,19.23
2018-10-19T10:54:29.093Z,13.87
2018-10-19T10:56:58.652Z,13.93
2018-10-19T10:59:28.337Z,14.53
2018-10-19T11:01:58.120Z,15.23
2018-10-19T11:04:27.666Z,9.97
2018-10-19T11:06:57.215Z,12.20
2018-10-19T11:09:26.940Z,12.57
2018-10-19T11:11:56.304Z,11.20
2018-10-19T11:14:26.763Z,9.83
2018-10-19T11:16:56.194Z,10.27
2018-10-19T11:19:25.569Z,11.13
2018-10-19T11:21:55.801Z,9.33
2018-10-19T11:24:25.251Z,13.50
2018-10-19T11:26:54.725Z,10.40
2018-10-19T11:29:24.250Z,17.13
2018-10-19T11:31:54.124Z,9.07
2018-10-19T11:34:23.461Z,8.53
2018-10-19T11:36:52.887Z,10.93
2018-10-19T11:39:22.402Z,8.03
2018-10-19T11:41:51.867Z,9.23
2018-10-19T11:44:21.212Z,11.17
2018-10-19T11:46:51.019Z,9.57
2018-10-19T11:49:20.589Z,10.53
2018-10-19T11:51:50.213Z,14.57
2018-10-19T11:54:19.588Z,9.27
2018-10-19T11:56:50.729Z,12.70
2018-10-19T11:59:20.291Z,10.57
2018-10-19T12:01:49.735Z,12.27
2018-10-19T12:04:19.121Z,12.93
2018-10-19T12:06:48.548Z,12.50
2018-10-19T12:09:18.031Z,13.07
2018-10-19T12:11:48.541Z,10.17
2018-10-19T12:14:17.871Z,9.30
2018-10-19T12:16:47.433Z,9.93
2018-10-19T12:19:16.745Z,7.10
2018-10-19T12:21:47.014Z,10.10
2018-10-19T12:24:16.577Z,6.90
2018-10-19T12:26:46.022Z,9.60
2018-10-19T12:29:15.379Z,5.27
2018-10-19T12:31:44.777Z,8.73
2018-10-19T12:34:14.362Z,8.40
2018-10-19T12:36:43.779Z,10.40
2018-10-19T12:39:16.943Z,13.67
2018-10-19T12:41:46.962Z,7.20
2018-10-19T12:44:16.379Z,6.13
2018-10-19T12:46:58.149Z,9.30
2018-10-19T12:49:27.846Z,5.33
2018-10-19T12:51:57.507Z,7.13
2018-10-19T12:54:27.193Z,4.97
2018-10-19T12:56:56.668Z,3.70
2018-10-19T12:59:27.185Z,7.60
2018-10-19T13:01:57.150Z,5.03
2018-10-19T13:04:26.629Z,9.67
2018-10-19T13:06:56.249Z,7.03
2018-10-19T13:09:25.635Z,3.17
2018-10-19T13:11:55.259Z,8.77
2018-10-19T13:14:24.607Z,6.63
2018-10-19T13:16:54.022Z,3.77
2018-10-19T13:19:23.406Z,5.87
2018-10-19T13:21:52.747Z,5.37
2018-10-19T13:24:22.175Z,7.27
2018-10-19T13:26:51.616Z,7.37
2018-10-19T13:29:21.671Z,6.03
2018-10-19T13:31:51.531Z,4.37
2018-10-19T13:34:20.969Z,5.77
2018-10-19T13:36:50.753Z,10.53
2018-10-19T13:39:20.096Z,9.17
2018-10-19T13:41:49.433Z,6.33
2018-10-19T13:44:18.804Z,8.17
2018-10-19T13:46:48.198Z,6.60
2018-10-19T13:49:17.706Z,6.70
2018-10-19T13:51:47.421Z,6.27
2018-10-19T13:54:16.740Z,8.10
2018-10-19T13:56:47.889Z,4.37
2018-10-19T13:59:17.881Z,8.07
2018-10-19T14:01:47.431Z,6.53
2018-10-19T14:04:16.974Z,4.50
2018-10-19T14:06:46.715Z,5.27
2018-10-19T14:09:16.765Z,8.13
2018-10-19T14:11:46.312Z,6.53
2018-10-19T14:14:16.569Z,7.83
2018-10-19T14:16:46.154Z,6.30
2018-10-19T14:19:15.905Z,5.87
2018-10-19T14:21:45.441Z,6.70
2018-10-19T14:24:19.624Z,8.17
2018-10-19T14:26:50.103Z,5.87
2018-10-19T14:29:19.971Z,8.47
2018-10-19T14:31:49.732Z,4.27
2018-10-19T14:34:19.454Z,7.33
2018-10-19T14:36:49.556Z,8.20
2018-10-19T14:39:19.114Z,6.10
2018-10-19T14:41:48.611Z,13.90
2018-10-19T14:44:18.196Z,5.83
2018-10-19T14:46:47.809Z,5.67
2018-10-19T14:49:17.530Z,6.83
2018-10-19T14:51:47.345Z,11.40
2018-10-19T14:54:17.277Z,5.37
2018-10-19T14:56:46.863Z,5.00
2018-10-19T14:59:17.583Z,7.33
2018-10-19T15:01:47.517Z,5.47
2018-10-19T15:04:18.758Z,9.67
2018-10-19T15:06:48.130Z,8.87
2018-10-19T15:09:18.111Z,7.93
2018-10-19T15:11:47.823Z,7.53
2018-10-19T15:14:17.923Z,7.40
2018-10-19T15:16:47.442Z,5.07
2018-10-19T15:19:17.444Z,6.67
2018-10-19T15:21:48.269Z,8.47
2018-10-19T15:24:21.320Z,8.53
2018-10-19T15:26:51.440Z,7.10
2018-10-19T15:29:20.956Z,8.73
2018-10-19T15:31:50.413Z,6.80
2018-10-19T15:34:20.076Z,4.77
2018-10-19T15:36:49.628Z,5.63
2018-10-19T15:39:20.280Z,5.40
2018-10-19T15:41:49.669Z,6.53
2018-10-19T15:44:19.749Z,3.43
2018-10-19T15:46:49.130Z,7.57
2018-10-19T15:49:20.462Z,7.87
2018-10-19T15:51:49.836Z,3.80
2018-10-19T15:54:20.097Z,7.50
2018-10-19T15:56:49.495Z,6.03
2018-10-19T15:59:19.485Z,11.67
2018-10-19T16:01:48.849Z,5.10
2018-10-19T16:04:18.808Z,10.17
2018-10-19T16:06:48.125Z,5.90
2018-10-19T16:09:17.702Z,5.47
2018-10-19T16:11:47.101Z,5.70
2018-10-19T16:14:16.485Z,6.67
2018-10-19T16:16:46.553Z,8.03
2018-10-19T16:19:17.223Z,7.00
2018-10-19T16:21:47.041Z,10.07
2018-10-19T16:24:16.904Z,6.83
2018-10-19T16:26:46.534Z,14.93
2018-10-19T16:29:16.003Z,8.03
2018-10-19T16:31:45.330Z,10.87
2018-10-19T16:34:14.739Z,9.67
2018-10-19T16:36:44.334Z,6.73
2018-10-19T16:39:16.730Z,6.87
2018-10-19T16:41:47.276Z,8.70
2018-10-19T16:44:16.989Z,8.50
2018-10-19T16:46:46.730Z,5.53
2018-10-19T16:49:16.443Z,5.30
2018-10-19T16:51:46.471Z,8.03
2018-10-19T16:54:16.321Z,7.50
2018-10-19T16:56:53.114Z,8.60
2018-10-19T16:59:22.649Z,9.90
2018-10-19T17:01:52.124Z,15.87
2018-10-19T17:04:21.667Z,14.60
2018-10-19T17:06:51.135Z,13.37
2018-10-19T17:09:21.434Z,15.90
2018-10-19T17:11:51.572Z,12.53
2018-10-19T17:14:21.279Z,15.17
2018-10-19T17:16:51.095Z,12.23
2018-10-19T17:19:20.835Z,11.10
2018-10-19T17:21:50.277Z,14.23
2018-10-19T17:24:19.792Z,11.70
2018-10-19T17:26:49.266Z,12.50
2018-10-19T17:29:29.411Z,14.20
2018-10-19T17:31:59.474Z,12.53
2018-10-19T17:34:29.719Z,19.73
2018-10-19T17:36:59.335Z,18.20
2018-10-19T17:39:29.214Z,19.20
2018-10-19T17:41:58.927Z,14.40
2018-10-19T17:44:29.132Z,19.10
2018-10-19T17:46:58.849Z,13.50
2018-10-19T17:49:28.591Z,15.40
2018-10-19T17:51:58.003Z,15.30
2018-10-19T17:54:27.617Z,16.97
2018-10-19T17:56:57.104Z,16.20
2018-10-19T17:59:26.475Z,17.60
2018-10-19T18:01:56.021Z,14.27
2018-10-19T18:04:26.675Z,9.13
2018-10-19T18:09:41.478Z,9.17
2018-10-19T18:12:11.482Z,11.70
2018-10-19T18:14:40.975Z,10.93
2018-10-19T18:17:10.583Z,8.53
2018-10-19T18:19:40.176Z,11.53
2018-10-19T18:22:10.676Z,16.97
2018-10-19T18:24:41.948Z,16.83
2018-10-19T18:27:11.672Z,16.50
2018-10-19T18:29:41.410Z,17.23
2018-10-19T18:32:11.110Z,17.47
2018-10-19T18:34:40.614Z,16.83
2018-10-19T18:37:09.957Z,16.07
2018-10-19T18:39:40.703Z,18.10
2018-10-19T18:42:10.164Z,17.03
2018-10-19T18:44:45.215Z,16.63
2018-10-19T18:47:14.874Z,16.17
2018-10-19T18:49:44.446Z,14.33
2018-10-19T18:52:14.105Z,13.07
2018-10-19T18:54:44.810Z,11.83
2018-10-19T18:57:14.497Z,8.27
2018-10-19T18:59:44.081Z,12.57
2018-10-19T19:02:13.639Z,12.63
2018-10-19T19:04:43.227Z,13.40
2018-10-19T19:07:12.970Z,9.93
2018-10-19T19:09:47.408Z,11.93
2018-10-19T19:12:16.962Z,10.73
2018-10-19T19:14:46.547Z,9.93
2018-10-19T19:17:16.138Z,7.07
2018-10-19T19:19:49.691Z,10.70
2018-10-19T19:22:19.181Z,6.57
2018-10-19T19:24:54.190Z,8.27
2018-10-19T19:27:23.947Z,10.37
2018-10-19T19:29:53.549Z,9.77
2018-10-19T19:32:22.956Z,9.00
2018-10-19T19:34:52.437Z,6.30
2018-10-19T19:37:21.911Z,9.83
2018-10-19T19:39:51.778Z,4.87
2018-10-19T19:42:26.579Z,6.53
2018-10-19T19:44:56.971Z,7.97
2018-10-19T19:47:36.623Z,7.40
2018-10-19T19:50:06.807Z,6.83
2018-10-19T19:52:36.982Z,5.73
2018-10-19T19:55:06.880Z,10.43
2018-10-19T19:57:37.117Z,6.77
2018-10-19T20:00:07.175Z,3.90
2018-10-19T20:02:37.135Z,5.63
2018-10-19T20:05:07.799Z,5.73
2018-10-19T20:07:37.899Z,4.23
2018-10-19T20:10:09.955Z,9.27
2018-10-19T20:12:40.948Z,6.07
2018-10-19T20:15:11.607Z,6.17
2018-10-19T20:17:42.233Z,6.20
2018-10-19T20:20:18.908Z,10.37
2018-10-19T20:22:48.483Z,12.17
2018-10-19T20:25:18.030Z,6.33
2018-10-19T20:27:47.532Z,7.30
2018-10-19T20:30:16.935Z,5.33
2018-10-19T20:32:46.424Z,9.47
2018-10-19T20:35:16.779Z,9.27
2018-10-19T20:37:46.318Z,7.20
2018-10-19T20:40:15.795Z,6.67
2018-10-19T20:42:45.707Z,5.77
2018-10-19T20:45:15.736Z,12.00
2018-10-19T20:47:45.623Z,7.10
2018-10-19T20:50:15.820Z,9.53
2018-10-19T20:52:45.273Z,9.37
2018-10-19T20:55:15.132Z,6.30
2018-10-19T20:57:45.878Z,5.23
2018-10-19T21:00:15.568Z,5.07
2018-10-19T21:02:45.247Z,6.57
2018-10-19T21:05:15.456Z,6.20
2018-10-19T21:07:44.774Z,6.07
2018-10-19T21:10:14.721Z,8.30
2018-10-19T21:12:44.450Z,7.83
2018-10-19T21:15:14.404Z,4.90
2018-10-19T21:17:43.728Z,8.47
2018-10-19T21:20:13.442Z,4.00
2018-10-19T21:22:42.901Z,5.90
2018-10-19T21:25:12.820Z,10.40
2018-10-19T21:27:43.079Z,6.50
2018-10-19T21:30:13.359Z,5.43
2018-10-19T21:32:43.140Z,10.53
2018-10-19T21:35:13.015Z,4.43
2018-10-19T21:37:42.635Z,8.60
2018-10-19T21:40:11.934Z,8.30
2018-10-19T21:42:42.562Z,6.70
2018-10-19T21:45:11.981Z,5.20
2018-10-19T21:47:41.577Z,6.60
2018-10-19T21:50:11.084Z,5.87
2018-10-19T21:52:40.406Z,8.77
2018-10-19T21:55:11.220Z,9.33
2018-10-19T21:57:43.135Z,8.60
2018-10-19T22:00:12.581Z,9.40
2018-10-19T22:02:42.594Z,5.67
2018-10-19T22:05:12.133Z,5.50
2018-10-19T22:07:42.232Z,9.93
2018-10-19T22:10:11.934Z,8.83
2018-10-19T22:12:43.093Z,5.80
2018-10-19T22:15:12.799Z,10.10
2018-10-19T22:17:42.833Z,5.30
2018-10-19T22:20:12.499Z,5.37
2018-10-19T22:22:44.905Z,9.37
2018-10-19T22:25:14.756Z,5.37
2018-10-19T22:27:45.130Z,9.20
2018-10-19T22:30:15.076Z,11.60
2018-10-19T22:32:45.497Z,13.57
2018-10-19T22:35:15.192Z,6.17
2018-10-19T22:37:45.424Z,7.87
2018-10-19T22:40:15.117Z,7.43
2018-10-19T22:42:45.698Z,9.53
2018-10-19T22:45:15.364Z,8.53
2018-10-19T22:47:45.611Z,8.93
2018-10-19T22:50:15.272Z,6.73
2018-10-19T22:52:45.307Z,8.93
2018-10-19T22:55:15.091Z,5.97
2018-10-19T22:57:44.922Z,9.60
2018-10-19T23:00:14.670Z,6.40
2018-10-19T23:02:44.503Z,4.73
2018-10-19T23:05:14.167Z,6.57
2018-10-19T23:07:44.174Z,5.00
2018-10-19T23:10:13.883Z,6.63
2018-10-19T23:12:44.028Z,6.27
2018-10-19T23:15:13.699Z,4.37
2018-10-19T23:17:43.350Z,6.20
2018-10-19T23:20:12.758Z,6.23
2018-10-19T23:22:42.416Z,7.47
2018-10-19T23:25:12.079Z,5.70
2018-10-19T23:27:42.904Z,12.53
2018-10-19T23:30:12.636Z,6.37
2018-10-19T23:32:42.273Z,7.93
2018-10-19T23:35:11.971Z,13.10
2018-10-19T23:37:41.863Z,10.87
2018-10-19T23:40:11.338Z,7.60
2018-10-19T23:42:42.345Z,10.07
2018-10-19T23:45:11.968Z,6.97
2018-10-19T23:47:41.782Z,9.23
2018-10-19T23:50:11.438Z,14.10
2018-10-19T23:52:41.184Z,9.93
2018-10-19T23:55:10.911Z,12.33
2018-10-19T23:57:42.171Z,8.80
